Time;durP1;ratioP1;P1;durP2;ratioP2;P2;SDS_P1;SDS_P2;PMS_P1;PMS_P2;Temp;Humidity;BMP_temperature;BMP_pressure;BME280_temperature;BME280_humidity;BME280_pressure;Samples;Min_cycle;Max_cycle;Signal;HPM_P1;HPM_P2
2022/11/02 00:02:05;;;;;;;6.82;3.55;;;;;;;;;;5104092;28;20210;-71
2022/11/02 00:04:31;;;;;;;7.93;3.65;;;;;;;;;;5103771;28;20414;-71
2022/11/02 00:06:57;;;;;;;6.20;4.03;;;;;;;;;;5103678;28;20199;-71
2022/11/02 00:09:23;;;;;;;6.38;3.78;;;;;;;;;;5103309;28;20200;-71
2022/11/02 00:11:51;;;;;;;8.90;4.05;;;;;;;;;;5103712;28;20203;-71
2022/11/02 00:14:17;;;;;;;10.57;4.47;;;;;;;;;;5103737;28;20534;-71
2022/11/02 00:16:43;;;;;;;6.13;4.00;;;;;;;;;;5103728;28;20202;-71
2022/11/02 00:19:10;;;;;;;5.45;4.20;;;;;;;;;;5103607;28;20449;-71
2022/11/02 00:21:36;;;;;;;5.88;3.90;;;;;;;;;;5103287;28;20203;-71
2022/11/02 00:24:04;;;;;;;9.65;4.32;;;;;;;;;;5103484;28;20503;-71
2022/11/02 00:26:33;;;;;;;5.13;3.83;;;;;;;;;;5103389;28;20199;-71
2022/11/02 00:29:00;;;;;;;7.95;3.90;;;;;;;;;;5103204;28;20216;-71
2022/11/02 00:31:26;;;;;;;7.25;4.20;;;;;;;;;;5103353;28;20404;-71
2022/11/02 00:33:53;;;;;;;5.50;4.03;;;;;;;;;;5103202;28;20195;-71
2022/11/02 00:36:19;;;;;;;5.65;3.90;;;;;;;;;;5103090;28;20203;-71
2022/11/02 00:38:45;;;;;;;6.45;3.92;;;;;;;;;;5102668;28;20209;-71
2022/11/02 00:41:12;;;;;;;5.47;4.03;;;;;;;;;;5102920;28;20203;-71
2022/11/02 00:43:38;;;;;;;6.00;3.85;;;;;;;;;;5103004;28;20202;-71
2022/11/02 00:46:06;;;;;;;8.40;4.20;;;;;;;;;;5102961;28;20405;-71
2022/11/02 00:48:32;;;;;;;7.15;4.60;;;;;;;;;;5103005;28;20528;-71
2022/11/02 00:50:58;;;;;;;5.65;4.03;;;;;;;;;;5103275;28;20377;-71
2022/11/02 00:53:24;;;;;;;7.88;4.13;;;;;;;;;;5102959;28;20196;-71
2022/11/02 00:55:52;;;;;;;4.22;3.80;;;;;;;;;;5102906;28;20199;-71
2022/11/02 00:58:19;;;;;;;8.75;4.10;;;;;;;;;;5102621;28;20199;-71
2022/11/02 01:00:45;;;;;;;4.15;3.75;;;;;;;;;;5102814;28;20196;-71
2022/11/02 01:03:12;;;;;;;7.90;3.78;;;;;;;;;;5102620;28;20288;-71
2022/11/02 01:05:39;;;;;;;5.25;3.50;;;;;;;;;;5102687;28;20523;-71
2022/11/02 01:08:05;;;;;;;10.38;4.15;;;;;;;;;;5102747;28;20196;-71
2022/11/02 01:10:31;;;;;;;5.60;4.03;;;;;;;;;;5102786;28;20196;-71
2022/11/02 01:12:58;;;;;;;8.85;4.10;;;;;;;;;;5102577;28;20204;-71
2022/11/02 01:15:24;;;;;;;6.90;4.15;;;;;;;;;;5102431;28;20195;-71
2022/11/02 01:17:50;;;;;;;5.10;3.50;;;;;;;;;;5102136;28;20518;-71
2022/11/02 01:20:18;;;;;;;5.63;3.90;;;;;;;;;;5102216;28;20195;-71
2022/11/02 01:22:44;;;;;;;5.53;3.85;;;;;;;;;;5102518;28;20199;-71
2022/11/02 01:25:10;;;;;;;6.28;3.58;;;;;;;;;;5102240;28;20227;-71
2022/11/02 01:27:38;;;;;;;5.82;4.13;;;;;;;;;;5101857;28;20215;-71
2022/11/02 01:30:04;;;;;;;8.02;4.50;;;;;;;;;;5102241;28;20391;-71
2022/11/02 01:32:31;;;;;;;5.18;4.15;;;;;;;;;;5101986;28;20384;-71
2022/11/02 01:34:57;;;;;;;8.68;4.28;;;;;;;;;;5102327;28;20202;-72
2022/11/02 01:37:25;;;;;;;4.28;3.95;;;;;;;;;;5102297;28;20195;-71
2022/11/02 01:39:51;;;;;;;11.85;4.47;;;;;;;;;;5102085;28;20407;-71
2022/11/02 01:42:18;;;;;;;4.63;3.97;;;;;;;;;;5102171;28;20204;-71
2022/11/02 01:44:44;;;;;;;5.40;3.83;;;;;;;;;;5102101;28;20212;-71
2022/11/02 01:47:14;;;;;;;7.13;4.57;;;;;;;;;;5102020;28;20195;-71
2022/11/02 01:49:42;;;;;;;5.55;4.38;;;;;;;;;;5102228;28;20230;-71
2022/11/02 01:52:11;;;;;;;8.48;4.30;;;;;;;;;;5107178;28;20195;-71
2022/11/02 01:54:40;;;;;;;4.00;3.70;;;;;;;;;;5108880;28;20214;-71
2022/11/02 01:57:08;;;;;;;6.40;4.40;;;;;;;;;;5108835;28;20202;-71
2022/11/02 01:59:36;;;;;;;6.00;3.95;;;;;;;;;;5108552;28;20195;-71
2022/11/02 02:02:04;;;;;;;6.88;4.55;;;;;;;;;;5108882;28;20370;-71
2022/11/02 02:04:32;;;;;;;8.68;5.00;;;;;;;;;;5108504;28;20195;-71
2022/11/02 02:06:58;;;;;;;5.85;4.10;;;;;;;;;;5108841;28;20197;-71
2022/11/02 02:09:25;;;;;;;7.75;4.80;;;;;;;;;;5108385;28;20200;-71
2022/11/02 02:11:52;;;;;;;9.82;4.47;;;;;;;;;;5108513;28;20463;-71
2022/11/02 02:14:19;;;;;;;5.10;4.20;;;;;;;;;;5108366;28;20195;-71
2022/11/02 02:16:52;;;;;;;9.30;5.03;;;;;;;;;;5108704;28;20384;-71
2022/11/02 02:19:25;;;;;;;5.30;4.78;;;;;;;;;;5108467;28;20199;-71
2022/11/02 02:21:55;;;;;;;5.43;4.88;;;;;;;;;;5108634;28;20203;-71
2022/11/02 02:24:29;;;;;;;8.50;4.78;;;;;;;;;;5107674;28;20204;-71
2022/11/02 02:27:17;;;;;;;5.68;4.70;;;;;;;;;;5108489;28;20522;-71
2022/11/02 02:29:51;;;;;;;5.30;4.80;;;;;;;;;;5103031;28;20195;-71
2022/11/02 02:32:21;;;;;;;4.60;4.15;;;;;;;;;;5108209;28;20199;-71
2022/11/02 02:34:51;;;;;;;4.95;4.45;;;;;;;;;;5108792;28;20191;-71
2022/11/02 02:37:19;;;;;;;4.10;3.80;;;;;;;;;;5108448;28;20191;-71
2022/11/02 02:39:49;;;;;;;7.65;4.35;;;;;;;;;;5108304;28;20191;-71
2022/11/02 02:42:19;;;;;;;5.90;4.35;;;;;;;;;;5108399;28;20196;-71
2022/11/02 02:44:49;;;;;;;6.35;4.53;;;;;;;;;;5108221;28;20383;-70
2022/11/02 02:47:18;;;;;;;7.97;4.53;;;;;;;;;;5108141;28;20196;-70
2022/11/02 02:49:48;;;;;;;5.20;4.70;;;;;;;;;;5108185;28;20199;-70
2022/11/02 02:52:15;;;;;;;6.00;4.65;;;;;;;;;;5108289;28;20198;-70
2022/11/02 02:54:43;;;;;;;4.82;4.43;;;;;;;;;;5108174;28;20200;-70
2022/11/02 02:57:10;;;;;;;6.68;4.10;;;;;;;;;;5108038;28;20195;-70
2022/11/02 02:59:39;;;;;;;5.28;4.35;;;;;;;;;;5108224;28;20210;-71
2022/11/02 03:02:06;;;;;;;5.13;4.55;;;;;;;;;;5107073;28;20499;-71
2022/11/02 03:04:34;;;;;;;4.43;4.10;;;;;;;;;;5104208;28;20239;-71
2022/11/02 03:07:01;;;;;;;4.20;3.80;;;;;;;;;;5105265;28;20196;-71
2022/11/02 03:09:31;;;;;;;5.30;4.80;;;;;;;;;;5104694;28;20272;-71
2022/11/02 03:12:00;;;;;;;6.82;4.53;;;;;;;;;;5104785;28;20195;-71
2022/11/02 03:14:32;;;;;;;5.03;4.10;;;;;;;;;;5104901;28;20204;-71
2022/11/02 03:17:04;;;;;;;4.07;3.78;;;;;;;;;;5104904;28;20230;-71
2022/11/02 03:19:34;;;;;;;5.05;4.55;;;;;;;;;;5104429;28;20549;-71
2022/11/02 03:22:04;;;;;;;4.68;4.32;;;;;;;;;;5104937;28;20184;-71
2022/11/02 03:24:34;;;;;;;4.60;4.20;;;;;;;;;;5104504;28;20208;-71
2022/11/02 03:27:07;;;;;;;7.30;4.20;;;;;;;;;;5104794;28;20216;-71
2022/11/02 03:29:36;;;;;;;5.25;4.32;;;;;;;;;;5104532;28;20241;-71
2022/11/02 03:32:07;;;;;;;5.93;4.35;;;;;;;;;;5104480;28;20203;-71
2022/11/02 03:34:37;;;;;;;4.80;4.40;;;;;;;;;;5104432;28;20203;-71
2022/11/02 03:37:10;;;;;;;6.13;4.65;;;;;;;;;;5104397;28;20200;-71
2022/11/02 03:39:38;;;;;;;5.00;4.55;;;;;;;;;;5104032;28;20230;-71
2022/11/02 03:42:05;;;;;;;4.75;4.20;;;;;;;;;;5104478;28;20218;-71
2022/11/02 03:44:34;;;;;;;4.43;4.10;;;;;;;;;;5104326;28;20203;-71
2022/11/02 03:47:01;;;;;;;6.95;4.88;;;;;;;;;;5104278;28;20379;-71
2022/11/02 03:49:28;;;;;;;6.82;4.05;;;;;;;;;;5103712;28;20196;-71
2022/11/02 03:51:55;;;;;;;6.95;4.32;;;;;;;;;;5103974;28;20499;-71
2022/11/02 03:54:28;;;;;;;14.27;5.22;;;;;;;;;;5104166;28;20195;-71
2022/11/02 03:56:56;;;;;;;6.93;4.53;;;;;;;;;;5104446;28;20416;-71
2022/11/02 03:59:22;;;;;;;5.75;4.20;;;;;;;;;;5103655;28;20203;-71
2022/11/02 04:01:50;;;;;;;7.10;4.70;;;;;;;;;;5104143;28;20255;-71
2022/11/02 04:04:16;;;;;;;7.18;4.70;;;;;;;;;;5103790;28;20196;-71
2022/11/02 04:06:43;;;;;;;6.65;4.20;;;;;;;;;;5103913;28;20215;-71
2022/11/02 04:09:09;;;;;;;6.43;4.30;;;;;;;;;;5103571;28;20196;-71
2022/11/02 04:14:40;;;;;;;7.10;4.55;;;;;;;;;;5103394;28;20533;-71
2022/11/02 04:19:51;;;;;;;7.65;5.40;;;;;;;;;;5103489;28;20226;-71
2022/11/02 04:25:18;;;;;;;7.03;4.97;;;;;;;;;;5103526;28;20191;-71
2022/11/02 04:27:46;;;;;;;6.05;5.35;;;;;;;;;;5103354;28;20223;-71
2022/11/02 04:30:13;;;;;;;5.25;4.75;;;;;;;;;;5103452;28;20496;-71
2022/11/02 04:35:23;;;;;;;4.93;4.43;;;;;;;;;;5103272;28;20194;-71
2022/11/02 04:40:33;;;;;;;5.00;4.50;;;;;;;;;;5103188;28;20210;-71
2022/11/02 04:43:01;;;;;;;5.95;4.53;;;;;;;;;;5103403;28;20196;-71
2022/11/02 04:45:27;;;;;;;5.97;4.63;;;;;;;;;;5102958;28;20220;-71
2022/11/02 04:47:58;;;;;;;6.50;4.65;;;;;;;;;;5102570;28;20207;-71
2022/11/02 04:50:25;;;;;;;4.93;4.57;;;;;;;;;;5103158;28;20195;-71
2022/11/02 04:52:54;;;;;;;5.80;4.35;;;;;;;;;;5103049;28;20202;-71
2022/11/02 04:55:21;;;;;;;5.68;4.45;;;;;;;;;;5102935;28;20420;-71
2022/11/02 04:57:47;;;;;;;5.03;4.57;;;;;;;;;;5102507;28;20469;-71
2022/11/02 05:00:16;;;;;;;6.75;4.88;;;;;;;;;;5102500;28;20200;-71
2022/11/02 05:02:42;;;;;;;4.40;4.10;;;;;;;;;;5102796;28;20218;-71
2022/11/02 05:05:11;;;;;;;5.20;4.80;;;;;;;;;;5102662;28;20218;-71
2022/11/02 05:07:37;;;;;;;4.70;4.30;;;;;;;;;;5102616;28;20534;-71
2022/11/02 05:10:04;;;;;;;4.78;4.38;;;;;;;;;;5102612;28;20433;-71
2022/11/02 05:12:30;;;;;;;5.05;4.68;;;;;;;;;;5102594;28;20460;-71
2022/11/02 05:14:57;;;;;;;4.47;4.18;;;;;;;;;;5102394;28;20426;-71
2022/11/02 05:17:24;;;;;;;5.05;4.55;;;;;;;;;;5102441;28;20206;-71
2022/11/02 05:19:50;;;;;;;4.72;4.38;;;;;;;;;;5102293;28;20371;-71
2022/11/02 05:22:17;;;;;;;4.47;4.13;;;;;;;;;;5102515;28;20195;-71
2022/11/02 05:24:43;;;;;;;4.85;4.40;;;;;;;;;;5102449;28;20202;-71
2022/11/02 05:27:09;;;;;;;4.68;4.38;;;;;;;;;;5101473;28;20230;-71
2022/11/02 05:29:36;;;;;;;4.70;4.32;;;;;;;;;;5101998;28;20211;-71
2022/11/02 05:32:02;;;;;;;4.90;4.45;;;;;;;;;;5102521;28;20267;-71
2022/11/02 05:34:30;;;;;;;5.18;4.50;;;;;;;;;;5102118;28;20199;-71
2022/11/02 05:36:56;;;;;;;5.20;4.75;;;;;;;;;;5102276;28;20415;-71
2022/11/02 05:39:22;;;;;;;4.90;4.30;;;;;;;;;;5101845;28;20240;-71
2022/11/02 05:41:48;;;;;;;7.70;4.35;;;;;;;;;;5102068;28;20195;-71
2022/11/02 05:44:15;;;;;;;4.55;4.25;;;;;;;;;;5101893;28;20222;-71
2022/11/02 05:46:42;;;;;;;8.57;5.10;;;;;;;;;;5102080;28;20543;-71
2022/11/02 05:49:09;;;;;;;7.13;4.60;;;;;;;;;;5101554;28;20196;-72
2022/11/02 05:51:36;;;;;;;7.60;5.10;;;;;;;;;;5101890;28;20196;-72
2022/11/02 05:54:02;;;;;;;5.65;5.03;;;;;;;;;;5101842;28;20196;-72
2022/11/02 05:56:29;;;;;;;6.38;4.40;;;;;;;;;;5101774;28;20389;-72
2022/11/02 05:58:55;;;;;;;8.27;5.85;;;;;;;;;;5102002;28;20200;-72
2022/11/02 06:01:21;;;;;;;5.22;4.72;;;;;;;;;;5101752;28;20202;-72
2022/11/02 06:03:48;;;;;;;7.55;5.25;;;;;;;;;;5101711;28;20202;-72
2022/11/02 06:06:14;;;;;;;6.93;4.60;;;;;;;;;;5101806;28;20535;-72
2022/11/02 06:08:41;;;;;;;7.30;5.22;;;;;;;;;;5101330;28;20611;-72
2022/11/02 06:11:08;;;;;;;10.15;5.18;;;;;;;;;;5101249;28;20202;-72
2022/11/02 06:13:35;;;;;;;6.55;4.72;;;;;;;;;;5101351;28;20196;-72
2022/11/02 06:16:02;;;;;;;7.85;4.95;;;;;;;;;;5101497;28;20192;-72
2022/11/02 06:18:28;;;;;;;8.13;4.80;;;;;;;;;;5101199;28;20202;-72
2022/11/02 06:20:56;;;;;;;6.45;4.93;;;;;;;;;;5101581;28;20370;-72
2022/11/02 06:23:23;;;;;;;6.97;5.53;;;;;;;;;;5101310;28;20196;-72
2022/11/02 06:25:54;;;;;;;7.70;4.72;;;;;;;;;;5101224;28;20378;-72
2022/11/02 06:28:20;;;;;;;8.52;5.43;;;;;;;;;;5101224;28;20253;-72
2022/11/02 06:30:48;;;;;;;6.55;4.85;;;;;;;;;;5101147;28;20202;-72
2022/11/02 06:33:14;;;;;;;8.55;5.38;;;;;;;;;;5090759;28;20493;-61
2022/11/02 06:35:44;;;;;;;8.50;5.20;;;;;;;;;;5086753;28;20308;-62
2022/11/02 06:38:10;;;;;;;6.63;5.45;;;;;;;;;;5095557;28;20426;-62
2022/11/02 06:40:36;;;;;;;7.70;5.03;;;;;;;;;;5098926;28;20208;-62
2022/11/02 06:43:04;;;;;;;6.22;5.20;;;;;;;;;;5098637;28;20204;-61
2022/11/02 06:45:30;;;;;;;11.35;5.72;;;;;;;;;;5100719;28;20203;-62
2022/11/02 06:47:56;;;;;;;14.50;6.28;;;;;;;;;;5091046;28;20848;-62
2022/11/02 06:50:23;;;;;;;9.77;6.18;;;;;;;;;;5097653;28;20216;-62
2022/11/02 06:52:51;;;;;;;13.52;6.35;;;;;;;;;;5099220;28;20432;-62
2022/11/02 06:55:17;;;;;;;9.50;5.10;;;;;;;;;;5092043;28;20219;-62
2022/11/02 06:57:44;;;;;;;8.45;5.70;;;;;;;;;;5097238;28;20238;-62
2022/11/02 07:00:15;;;;;;;7.40;5.32;;;;;;;;;;5096802;28;20218;-62
2022/11/02 07:02:42;;;;;;;8.02;5.88;;;;;;;;;;5099047;28;20279;-61
2022/11/02 07:05:08;;;;;;;8.48;5.28;;;;;;;;;;5098447;28;20210;-62
2022/11/02 07:07:34;;;;;;;7.03;5.68;;;;;;;;;;5097393;28;20228;-61
2022/11/02 07:10:01;;;;;;;6.78;5.63;;;;;;;;;;5097342;28;20542;-64
2022/11/02 07:12:27;;;;;;;7.30;5.63;;;;;;;;;;5096201;28;20232;-61
2022/11/02 07:14:53;;;;;;;7.97;5.05;;;;;;;;;;5098751;28;20212;-63
2022/11/02 07:17:21;;;;;;;9.10;5.57;;;;;;;;;;5100067;28;20222;-64
2022/11/02 07:19:47;;;;;;;14.38;5.28;;;;;;;;;;5099879;28;20211;-64
2022/11/02 07:22:13;;;;;;;10.10;5.93;;;;;;;;;;5100731;28;20207;-64
2022/11/02 07:24:40;;;;;;;11.23;6.00;;;;;;;;;;5099862;28;20211;-64
2022/11/02 07:27:06;;;;;;;7.53;5.43;;;;;;;;;;5099957;28;20234;-62
2022/11/02 07:29:32;;;;;;;9.15;5.55;;;;;;;;;;5098199;28;20211;-61
2022/11/02 07:31:58;;;;;;;13.60;5.93;;;;;;;;;;5098539;28;20538;-61
2022/11/02 07:34:26;;;;;;;9.82;5.75;;;;;;;;;;5095833;28;20237;-61
2022/11/02 07:36:53;;;;;;;9.63;5.60;;;;;;;;;;5098893;28;20215;-61
2022/11/02 07:39:19;;;;;;;6.97;5.90;;;;;;;;;;5098108;28;20226;-63
2022/11/02 07:41:45;;;;;;;8.50;5.47;;;;;;;;;;5098103;28;20218;-61
2022/11/02 07:44:11;;;;;;;9.40;6.15;;;;;;;;;;5096790;28;20212;-62
2022/11/02 07:46:38;;;;;;;9.75;5.93;;;;;;;;;;5096887;28;20514;-62
2022/11/02 07:49:04;;;;;;;10.63;6.47;;;;;;;;;;5090979;28;20215;-61
2022/11/02 07:51:31;;;;;;;12.95;6.78;;;;;;;;;;5088423;28;20204;-60
2022/11/02 07:53:59;;;;;;;9.98;5.95;;;;;;;;;;5091920;28;20530;-62
2022/11/02 07:56:26;;;;;;;10.30;5.18;;;;;;;;;;5096111;28;20462;-63
2022/11/02 07:58:52;;;;;;;8.88;6.03;;;;;;;;;;5095868;28;20211;-62
2022/11/02 08:01:18;;;;;;;10.48;5.72;;;;;;;;;;5096121;28;20216;-62
2022/11/02 08:03:44;;;;;;;11.85;6.00;;;;;;;;;;5097205;28;20369;-62
2022/11/02 08:06:11;;;;;;;12.20;5.68;;;;;;;;;;5096948;28;20238;-61
2022/11/02 08:08:38;;;;;;;10.88;5.70;;;;;;;;;;5096780;28;20222;-62
2022/11/02 08:11:05;;;;;;;17.25;6.72;;;;;;;;;;5096432;28;20211;-62
2022/11/02 08:13:32;;;;;;;17.33;5.95;;;;;;;;;;5096068;28;20733;-62
2022/11/02 08:15:58;;;;;;;7.78;5.28;;;;;;;;;;5096339;28;20234;-62
2022/11/02 08:18:25;;;;;;;13.77;6.05;;;;;;;;;;5096135;28;20218;-62
2022/11/02 08:20:51;;;;;;;20.55;6.60;;;;;;;;;;5096937;28;20218;-62
2022/11/02 08:23:18;;;;;;;16.58;6.13;;;;;;;;;;5095858;28;20212;-62
2022/11/02 08:25:47;;;;;;;14.98;5.90;;;;;;;;;;5091944;28;20211;-62
2022/11/02 08:28:14;;;;;;;11.50;6.22;;;;;;;;;;5088159;28;20553;-62
2022/11/02 08:30:41;;;;;;;20.63;6.40;;;;;;;;;;5095965;28;20207;-62
2022/11/02 08:33:09;;;;;;;13.68;6.80;;;;;;;;;;5096310;28;20218;-62
2022/11/02 08:35:36;;;;;;;12.35;6.30;;;;;;;;;;5096264;28;20527;-62
2022/11/02 08:38:03;;;;;;;8.18;5.95;;;;;;;;;;5095975;28;20233;-63
2022/11/02 08:40:29;;;;;;;10.75;6.60;;;;;;;;;;5096391;28;20207;-62
2022/11/02 08:42:58;;;;;;;9.32;5.60;;;;;;;;;;5095648;28;20511;-62
2022/11/02 08:45:24;;;;;;;10.73;5.75;;;;;;;;;;5091360;28;20226;-62
2022/11/02 08:47:50;;;;;;;12.68;5.50;;;;;;;;;;5092500;28;20231;-62
2022/11/02 08:50:16;;;;;;;12.25;5.22;;;;;;;;;;5090858;28;20319;-62
2022/11/02 08:52:43;;;;;;;9.15;4.82;;;;;;;;;;5095935;28;20211;-62
2022/11/02 08:55:09;;;;;;;10.77;4.95;;;;;;;;;;5094908;28;20502;-62
2022/11/02 08:57:44;;;;;;;9.00;4.03;;;;;;;;;;5094887;28;20208;-64
2022/11/02 09:00:12;;;;;;;10.82;3.50;;;;;;;;;;5094859;28;20210;-64
2022/11/02 09:02:38;;;;;;;9.07;3.60;;;;;;;;;;5089827;28;20226;-64
2022/11/02 09:05:05;;;;;;;7.00;2.97;;;;;;;;;;5095348;28;20574;-64
2022/11/02 09:07:31;;;;;;;8.60;3.22;;;;;;;;;;5090260;28;20569;-64
2022/11/02 09:09:57;;;;;;;5.45;2.58;;;;;;;;;;5095842;28;20211;-63
2022/11/02 09:12:24;;;;;;;7.10;2.67;;;;;;;;;;5095397;28;20226;-62
2022/11/02 09:14:50;;;;;;;8.23;3.30;;;;;;;;;;5096846;28;20484;-62
2022/11/02 09:17:17;;;;;;;8.05;3.25;;;;;;;;;;5095908;28;20249;-63
2022/11/02 09:19:44;;;;;;;4.93;3.10;;;;;;;;;;5093643;28;20538;-63
2022/11/02 09:22:10;;;;;;;7.97;3.22;;;;;;;;;;5094267;28;20208;-62
2022/11/02 09:24:36;;;;;;;8.60;3.22;;;;;;;;;;5092871;28;20211;-63
2022/11/02 09:27:02;;;;;;;6.15;3.22;;;;;;;;;;5094689;28;20224;-62
2022/11/02 09:29:29;;;;;;;4.80;2.92;;;;;;;;;;5087874;28;20227;-62
2022/11/02 09:31:55;;;;;;;7.75;2.88;;;;;;;;;;5090693;28;20208;-62
2022/11/02 09:34:22;;;;;;;4.43;2.80;;;;;;;;;;5087230;28;20211;-62
2022/11/02 09:36:49;;;;;;;9.02;3.65;;;;;;;;;;5095025;28;20430;-62
2022/11/02 09:39:16;;;;;;;6.53;3.53;;;;;;;;;;5095157;28;20223;-62
2022/11/02 09:41:43;;;;;;;7.00;3.40;;;;;;;;;;5095143;28;20249;-62
2022/11/02 09:44:13;;;;;;;11.77;3.28;;;;;;;;;;5095345;28;20211;-62
2022/11/02 09:46:40;;;;;;;4.22;2.63;;;;;;;;;;5095127;28;20211;-62
2022/11/02 09:49:11;;;;;;;6.30;2.85;;;;;;;;;;5096079;28;20518;-63
2022/11/02 09:51:40;;;;;;;6.53;2.50;;;;;;;;;;5097681;28;20510;-63
2022/11/02 09:54:09;;;;;;;6.20;2.70;;;;;;;;;;5094541;28;20515;-63
2022/11/02 09:56:35;;;;;;;6.18;2.65;;;;;;;;;;5095680;28;20242;-63
2022/11/02 09:59:03;;;;;;;7.55;2.50;;;;;;;;;;5083483;28;20519;-61
2022/11/02 10:01:37;;;;;;;9.15;2.22;;;;;;;;;;5095025;28;20527;-62
2022/11/02 10:04:14;;;;;;;3.33;2.17;;;;;;;;;;5094867;28;20410;-62
2022/11/02 10:06:44;;;;;;;7.28;1.90;;;;;;;;;;5094510;28;20725;-62
2022/11/02 10:09:13;;;;;;;8.52;2.10;;;;;;;;;;5093949;28;20212;-61
2022/11/02 10:11:43;;;;;;;4.28;1.90;;;;;;;;;;5092303;28;20501;-63
2022/11/02 10:14:12;;;;;;;5.68;1.88;;;;;;;;;;5091939;28;21007;-62
2022/11/02 10:16:41;;;;;;;6.20;2.13;;;;;;;;;;5094393;28;20542;-62
2022/11/02 10:19:11;;;;;;;6.18;1.90;;;;;;;;;;5080873;28;20426;-62
2022/11/02 10:21:38;;;;;;;9.57;1.90;;;;;;;;;;5099054;28;20200;-62
2022/11/02 10:24:10;;;;;;;6.72;2.17;;;;;;;;;;5100062;28;20207;-62
2022/11/02 10:26:38;;;;;;;10.68;1.70;;;;;;;;;;5100621;28;20211;-62
2022/11/02 10:29:11;;;;;;;9.43;2.25;;;;;;;;;;5100489;28;20559;-61
2022/11/02 10:31:37;;;;;;;3.90;1.60;;;;;;;;;;5099981;28;20214;-60
2022/11/02 10:34:13;;;;;;;6.68;1.50;;;;;;;;;;5100383;28;20211;-66
2022/11/02 10:36:44;;;;;;;4.97;1.60;;;;;;;;;;5101246;28;20211;-66
2022/11/02 10:39:16;;;;;;;7.38;1.55;;;;;;;;;;5100689;28;20244;-61
2022/11/02 10:41:51;;;;;;;7.40;1.73;;;;;;;;;;5099139;28;20216;-62
2022/11/02 10:44:26;;;;;;;6.90;1.70;;;;;;;;;;5097755;28;20207;-62
2022/11/02 10:46:58;;;;;;;5.75;1.70;;;;;;;;;;5099290;28;20395;-63
2022/11/02 10:49:33;;;;;;;4.45;1.15;;;;;;;;;;5098821;28;20234;-64
2022/11/02 10:51:59;;;;;;;6.03;1.50;;;;;;;;;;5098357;28;20211;-63
2022/11/02 10:54:27;;;;;;;8.82;1.60;;;;;;;;;;5097420;28;20216;-61
2022/11/02 10:56:56;;;;;;;6.25;1.38;;;;;;;;;;5097939;28;20212;-61
2022/11/02 10:59:22;;;;;;;5.32;1.42;;;;;;;;;;5097568;28;20211;-61
2022/11/02 11:02:03;;;;;;;7.38;1.23;;;;;;;;;;5097786;28;20223;-61
2022/11/02 11:04:30;;;;;;;3.63;1.27;;;;;;;;;;5098832;28;20257;-61
2022/11/02 11:06:57;;;;;;;4.70;1.30;;;;;;;;;;5097050;28;20220;-63
2022/11/02 11:09:25;;;;;;;4.13;1.50;;;;;;;;;;5097981;28;20207;-63
2022/11/02 11:11:55;;;;;;;8.40;1.95;;;;;;;;;;5097058;28;20218;-63
2022/11/02 11:14:22;;;;;;;3.97;1.30;;;;;;;;;;5097801;28;20222;-63
2022/11/02 11:16:49;;;;;;;6.32;1.75;;;;;;;;;;5098002;28;20234;-63
2022/11/02 11:19:21;;;;;;;7.38;1.70;;;;;;;;;;5098492;28;20294;-63
2022/11/02 11:21:48;;;;;;;6.25;1.67;;;;;;;;;;5097924;28;20211;-63
2022/11/02 11:24:21;;;;;;;4.50;1.40;;;;;;;;;;5096100;28;20219;-63
2022/11/02 11:27:01;;;;;;;7.00;1.80;;;;;;;;;;5097512;28;20226;-63
2022/11/02 11:29:30;;;;;;;4.18;1.60;;;;;;;;;;5098053;28;20615;-63
2022/11/02 11:31:56;;;;;;;4.53;1.33;;;;;;;;;;5097611;28;20409;-63
2022/11/02 11:34:24;;;;;;;5.75;1.52;;;;;;;;;;5097659;28;20219;-63
2022/11/02 11:36:50;;;;;;;4.30;2.03;;;;;;;;;;5097146;28;20310;-63
2022/11/02 11:39:22;;;;;;;7.95;1.58;;;;;;;;;;5097055;28;20219;-63
2022/11/02 11:41:49;;;;;;;4.28;1.27;;;;;;;;;;5097408;28;20211;-63
2022/11/02 11:44:17;;;;;;;6.45;1.50;;;;;;;;;;5097245;28;20713;-63
2022/11/02 11:46:45;;;;;;;6.15;1.75;;;;;;;;;;5097918;28;20204;-64
2022/11/02 11:49:22;;;;;;;4.57;1.17;;;;;;;;;;5097833;28;20231;-64
2022/11/02 11:51:50;;;;;;;5.55;1.50;;;;;;;;;;5097890;28;20215;-64
2022/11/02 11:54:21;;;;;;;2.90;1.17;;;;;;;;;;5096984;28;20294;-63
2022/11/02 11:56:48;;;;;;;8.13;1.60;;;;;;;;;;5097213;28;20208;-64
2022/11/02 11:59:21;;;;;;;7.47;1.55;;;;;;;;;;5097530;28;20204;-64
2022/11/02 12:01:47;;;;;;;6.88;1.38;;;;;;;;;;5097120;28;20230;-64
2022/11/02 12:04:22;;;;;;;6.97;1.50;;;;;;;;;;5098300;28;20519;-62
2022/11/02 12:06:52;;;;;;;8.13;1.42;;;;;;;;;;5097342;28;20444;-63
2022/11/02 12:09:24;;;;;;;5.10;1.40;;;;;;;;;;5095881;28;20594;-62
2022/11/02 12:11:53;;;;;;;3.30;1.10;;;;;;;;;;5097440;28;20208;-62
2022/11/02 12:14:30;;;;;;;7.43;1.63;;;;;;;;;;5096797;28;20247;-62
2022/11/02 12:17:09;;;;;;;5.90;1.38;;;;;;;;;;5097833;28;20218;-62
2022/11/02 12:19:46;;;;;;;8.00;1.75;;;;;;;;;;5084823;28;20208;-62
2022/11/02 12:22:17;;;;;;;4.13;1.55;;;;;;;;;;5098400;28;20215;-62
2022/11/02 12:24:58;;;;;;;6.63;1.50;;;;;;;;;;5095867;28;20199;-62
2022/11/02 12:27:31;;;;;;;6.00;1.40;;;;;;;;;;5099853;28;20536;-62
2022/11/02 12:30:04;;;;;;;2.85;1.10;;;;;;;;;;5099953;28;20203;-62
2022/11/02 12:32:41;;;;;;;4.38;1.50;;;;;;;;;;5099829;28;20219;-61
2022/11/02 12:35:26;;;;;;;4.88;1.50;;;;;;;;;;5099750;28;20526;-61
2022/11/02 12:38:01;;;;;;;7.43;1.30;;;;;;;;;;5095745;28;20212;-61
2022/11/02 12:40:32;;;;;;;4.85;1.30;;;;;;;;;;5100349;28;20233;-61
2022/11/02 12:43:03;;;;;;;3.83;1.25;;;;;;;;;;5096681;28;20199;-63
2022/11/02 12:45:38;;;;;;;7.38;1.67;;;;;;;;;;5100872;28;20391;-64
2022/11/02 12:48:04;;;;;;;3.80;1.27;;;;;;;;;;5100931;28;20421;-63
2022/11/02 12:50:36;;;;;;;5.55;1.50;;;;;;;;;;5101205;28;20598;-64
2022/11/02 12:53:09;;;;;;;3.22;1.42;;;;;;;;;;5100830;28;20226;-64
2022/11/02 12:55:37;;;;;;;5.30;1.33;;;;;;;;;;5099658;28;20208;-64
2022/11/02 12:58:06;;;;;;;3.92;1.48;;;;;;;;;;5100326;28;20211;-64
2022/11/02 13:00:35;;;;;;;6.88;1.83;;;;;;;;;;5100650;28;20520;-62
2022/11/02 13:03:04;;;;;;;6.55;1.30;;;;;;;;;;5100807;28;20208;-62
2022/11/02 13:05:34;;;;;;;4.85;1.60;;;;;;;;;;5100149;28;20210;-62
2022/11/02 13:08:04;;;;;;;3.95;1.52;;;;;;;;;;5100011;28;20550;-62
2022/11/02 13:10:33;;;;;;;3.92;1.58;;;;;;;;;;5100136;28;20278;-64
2022/11/02 13:13:01;;;;;;;3.88;1.23;;;;;;;;;;5100773;28;20211;-63
2022/11/02 13:15:29;;;;;;;2.78;1.10;;;;;;;;;;5101836;28;20267;-64
2022/11/02 13:17:59;;;;;;;3.72;1.50;;;;;;;;;;5101653;28;20199;-64
2022/11/02 13:20:27;;;;;;;5.82;1.30;;;;;;;;;;5100832;28;20215;-64
2022/11/02 13:22:55;;;;;;;7.43;1.52;;;;;;;;;;5100441;28;20200;-65
2022/11/02 13:25:23;;;;;;;4.90;1.33;;;;;;;;;;5100346;28;20215;-64
2022/11/02 13:27:52;;;;;;;5.65;2.00;;;;;;;;;;5099332;28;20238;-64
2022/11/02 13:30:19;;;;;;;5.35;1.50;;;;;;;;;;5101732;28;20200;-64
2022/11/02 13:32:47;;;;;;;3.72;1.55;;;;;;;;;;5101218;28;20254;-64
2022/11/02 13:35:17;;;;;;;8.00;1.40;;;;;;;;;;5099957;28;20212;-64
2022/11/02 13:37:44;;;;;;;6.10;1.65;;;;;;;;;;5100528;28;20216;-65
2022/11/02 13:40:15;;;;;;;7.03;1.52;;;;;;;;;;5101288;28;20203;-63
2022/11/02 13:42:57;;;;;;;6.18;1.02;;;;;;;;;;5100211;28;20213;-63
2022/11/02 13:45:32;;;;;;;9.00;1.40;;;;;;;;;;5099731;28;20211;-63
2022/11/02 13:48:17;;;;;;;10.00;1.40;;;;;;;;;;5100616;28;20211;-63
2022/11/02 13:50:49;;;;;;;2.53;1.25;;;;;;;;;;5102519;28;20204;-63
2022/11/02 13:53:17;;;;;;;5.55;1.50;;;;;;;;;;5103149;28;20196;-63
2022/11/02 13:55:45;;;;;;;8.05;1.60;;;;;;;;;;5102536;28;20226;-63
2022/11/02 13:58:19;;;;;;;6.95;1.30;;;;;;;;;;5102901;28;20220;-63
2022/11/02 14:00:46;;;;;;;5.20;1.27;;;;;;;;;;5100597;28;20439;-63
2022/11/02 14:03:15;;;;;;;4.53;1.42;;;;;;;;;;5099541;28;20384;-63
2022/11/02 14:05:44;;;;;;;4.32;1.30;;;;;;;;;;5098181;28;20211;-63
2022/11/02 14:08:17;;;;;;;8.73;1.73;;;;;;;;;;5098666;28;20416;-63
2022/11/02 14:10:44;;;;;;;5.65;1.40;;;;;;;;;;5093906;28;20208;-63
2022/11/02 14:13:11;;;;;;;5.13;1.20;;;;;;;;;;5099505;28;20530;-65
2022/11/02 14:15:41;;;;;;;4.50;1.17;;;;;;;;;;5099125;28;20226;-63
2022/11/02 14:18:11;;;;;;;3.40;1.17;;;;;;;;;;5101561;28;20215;-63
2022/11/02 14:20:38;;;;;;;7.57;1.45;;;;;;;;;;5101769;28;20264;-63
2022/11/02 14:23:23;;;;;;;7.05;1.55;;;;;;;;;;5102056;28;20203;-62
2022/11/02 14:25:52;;;;;;;4.15;1.40;;;;;;;;;;5100812;28;20214;-62
2022/11/02 14:28:31;;;;;;;5.70;1.50;;;;;;;;;;5101610;28;20431;-62
2022/11/02 14:31:00;;;;;;;2.72;1.10;;;;;;;;;;5101894;28;20192;-62
2022/11/02 14:33:46;;;;;;;9.18;1.55;;;;;;;;;;5102188;28;20208;-62
2022/11/02 14:36:22;;;;;;;5.88;2.00;;;;;;;;;;5101065;28;20214;-62
2022/11/02 14:38:54;;;;;;;5.63;1.40;;;;;;;;;;5100685;28;20199;-62
2022/11/02 14:41:32;;;;;;;6.78;2.10;;;;;;;;;;5101229;28;20390;-62
2022/11/02 14:44:03;;;;;;;6.43;1.58;;;;;;;;;;5101897;28;20499;-62
2022/11/02 14:46:37;;;;;;;6.05;1.75;;;;;;;;;;5102049;28;20203;-63
2022/11/02 14:49:04;;;;;;;7.90;1.75;;;;;;;;;;5100887;28;20227;-63
2022/11/02 14:51:32;;;;;;;5.75;1.63;;;;;;;;;;5101470;28;20204;-63
2022/11/02 14:54:00;;;;;;;8.25;1.77;;;;;;;;;;5101752;28;20207;-62
2022/11/02 14:56:41;;;;;;;8.23;1.58;;;;;;;;;;5099971;28;20214;-63
2022/11/02 14:59:15;;;;;;;6.75;1.42;;;;;;;;;;5103090;28;20203;-62
2022/11/02 15:01:49;;;;;;;6.68;1.80;;;;;;;;;;5103356;28;20459;-63
2022/11/02 15:04:15;;;;;;;7.20;1.80;;;;;;;;;;5103528;28;20484;-63